createdAt,value
2022-12-28T00:02:01.790Z,12.20
2022-12-28T00:04:34.187Z,13.20
2022-12-28T00:07:06.567Z,16.00
2022-12-28T00:09:39.086Z,15.80
2022-12-28T00:12:11.708Z,12.00
2022-12-28T00:14:46.098Z,24.10
2022-12-28T00:17:18.894Z,14.80
2022-12-28T00:19:51.369Z,25.40
2022-12-28T00:22:23.928Z,25.10
2022-12-28T00:24:56.320Z,14.40
2022-12-28T00:27:28.669Z,15.10
2022-12-28T00:30:01.045Z,11.00
2022-12-28T00:32:34.418Z,19.90
2022-12-28T00:35:07.907Z,16.50
2022-12-28T00:37:40.386Z,14.40
2022-12-28T00:40:18.924Z,11.00
2022-12-28T00:42:54.604Z,18.10
2022-12-28T00:45:26.999Z,35.60
2022-12-28T00:47:59.401Z,12.00
2022-12-28T00:50:31.954Z,10.40
2022-12-28T00:53:04.582Z,9.00
2022-12-28T00:55:37.528Z,10.80
2022-12-28T00:58:11.714Z,13.50
2022-12-28T01:00:44.212Z,15.90
2022-12-28T01:03:16.653Z,13.40
2022-12-28T01:05:49.238Z,7.30
2022-12-28T01:08:21.739Z,9.10
2022-12-28T01:10:54.065Z,6.90
2022-12-28T01:13:26.486Z,15.80
2022-12-28T01:15:58.857Z,8.50
2022-12-28T01:18:31.717Z,22.70
2022-12-28T01:21:11.539Z,11.00
2022-12-28T01:23:44.321Z,18.90
2022-12-28T01:26:17.264Z,11.60
2022-12-28T01:28:50.783Z,16.70
2022-12-28T01:31:23.868Z,10.80
2022-12-28T01:33:56.561Z,12.20
2022-12-28T01:36:35.043Z,9.10
2022-12-28T01:39:08.222Z,11.50
2022-12-28T01:41:42.865Z,16.90
2022-12-28T01:44:51.342Z,11.90
2022-12-28T01:47:28.263Z,14.10
2022-12-28T01:50:08.904Z,6.40
2022-12-28T01:52:44.769Z,5.70
2022-12-28T01:55:20.079Z,9.00
2022-12-28T01:57:57.084Z,9.30
2022-12-28T02:00:30.354Z,15.10
2022-12-28T02:03:07.278Z,15.50
2022-12-28T02:05:42.793Z,8.00
2022-12-28T02:08:23.474Z,10.20
2022-12-28T02:10:57.314Z,10.30
2022-12-28T02:13:30.061Z,20.20
2022-12-28T02:16:02.958Z,12.10
2022-12-28T02:18:35.565Z,14.10
2022-12-28T02:21:25.131Z,14.40
2022-12-28T02:24:17.757Z,17.50
2022-12-28T02:27:01.988Z,18.30
2022-12-28T02:29:55.328Z,19.10
2022-12-28T02:32:41.695Z,10.00
2022-12-28T02:35:18.777Z,11.30
2022-12-28T02:37:54.923Z,17.20
2022-12-28T02:40:34.121Z,13.30
2022-12-28T02:43:07.011Z,9.70
2022-12-28T02:45:59.467Z,12.00
2022-12-28T02:48:59.756Z,14.00
2022-12-28T02:51:49.045Z,13.50
2022-12-28T02:55:18.867Z,11.50
2022-12-28T02:58:16.045Z,13.40
2022-12-28T03:01:01.376Z,13.60
2022-12-28T03:03:40.839Z,11.80
2022-12-28T03:06:39.602Z,16.40
2022-12-28T03:09:18.915Z,13.60
2022-12-28T03:12:01.987Z,15.10
2022-12-28T03:14:42.193Z,10.90
2022-12-28T03:17:33.212Z,11.20
2022-12-28T03:20:27.617Z,13.90
2022-12-28T03:23:23.263Z,13.90
2022-12-28T03:26:16.154Z,12.40
2022-12-28T03:29:09.255Z,17.60
2022-12-28T03:31:44.771Z,12.70
2022-12-28T03:34:18.836Z,13.80
2022-12-28T03:37:00.581Z,20.40
2022-12-28T03:39:46.416Z,17.70
2022-12-28T03:42:44.652Z,14.00
2022-12-28T03:45:45.384Z,20.20
2022-12-28T03:48:16.532Z,15.50
2022-12-28T03:50:51.667Z,12.80
2022-12-28T03:56:11.041Z,12.40
2022-12-28T03:58:43.917Z,13.30
2022-12-28T04:01:16.902Z,18.90
2022-12-28T04:03:49.789Z,15.00
2022-12-28T04:06:22.908Z,13.80
2022-12-28T04:08:55.277Z,14.10
2022-12-28T04:11:33.463Z,12.90
2022-12-28T04:14:10.896Z,24.80
2022-12-28T04:16:45.478Z,22.30
2022-12-28T04:19:20.589Z,32.70
2022-12-28T04:21:53.331Z,29.50
2022-12-28T04:24:25.950Z,15.30
2022-12-28T04:26:59.244Z,17.70
2022-12-28T04:29:31.646Z,17.70
2022-12-28T04:32:13.027Z,11.30
2022-12-28T04:34:48.741Z,11.10
2022-12-28T04:37:22.740Z,14.00
2022-12-28T04:39:57.296Z,12.00
2022-12-28T04:42:29.978Z,12.60
2022-12-28T04:45:02.319Z,11.70
2022-12-28T04:47:34.644Z,15.70
2022-12-28T04:50:07.728Z,14.90
2022-12-28T04:52:40.036Z,17.30
2022-12-28T04:55:32.903Z,31.80
2022-12-28T04:58:07.017Z,13.60
2022-12-28T05:00:39.506Z,14.00
2022-12-28T05:03:11.890Z,13.60
2022-12-28T05:05:45.249Z,13.00
2022-12-28T05:08:17.635Z,12.80
2022-12-28T05:10:49.960Z,12.90
2022-12-28T05:13:22.310Z,12.90
2022-12-28T05:15:54.836Z,16.20
2022-12-28T05:18:27.284Z,14.10
2022-12-28T05:21:04.033Z,41.90
2022-12-28T05:23:38.468Z,52.10
2022-12-28T05:26:14.807Z,16.30
2022-12-28T05:28:47.328Z,13.50
2022-12-28T05:31:23.422Z,16.20
2022-12-28T05:33:56.393Z,16.60
2022-12-28T05:36:30.099Z,15.90
2022-12-28T05:39:02.598Z,15.50
2022-12-28T05:41:35.012Z,14.30
2022-12-28T05:44:07.891Z,14.20
2022-12-28T05:46:40.307Z,16.00
2022-12-28T05:49:12.661Z,13.70
2022-12-28T05:51:45.027Z,15.50
2022-12-28T05:54:17.401Z,15.60
2022-12-28T05:56:53.183Z,17.10
2022-12-28T05:59:25.499Z,15.30
2022-12-28T06:01:58.026Z,16.10
2022-12-28T06:04:30.533Z,15.10
2022-12-28T06:07:03.038Z,15.80
2022-12-28T06:09:35.686Z,14.80
2022-12-28T06:12:10.134Z,18.20
2022-12-28T06:14:42.555Z,16.20
2022-12-28T06:17:14.884Z,14.80
2022-12-28T06:19:47.303Z,14.60
2022-12-28T06:22:19.649Z,13.10
2022-12-28T06:24:52.053Z,14.40
2022-12-28T06:27:24.420Z,16.00
2022-12-28T06:29:56.765Z,14.20
2022-12-28T06:32:29.152Z,13.40
2022-12-28T06:35:02.717Z,13.80
2022-12-28T06:37:35.090Z,18.70
2022-12-28T06:40:08.796Z,23.20
2022-12-28T06:42:41.140Z,22.60
2022-12-28T06:45:13.943Z,20.40
2022-12-28T06:47:46.279Z,21.80
2022-12-28T06:50:18.746Z,18.30
2022-12-28T06:52:51.119Z,24.00
2022-12-28T06:55:23.493Z,16.50
2022-12-28T06:57:56.455Z,18.00
2022-12-28T07:00:28.904Z,20.60
2022-12-28T07:03:01.569Z,27.90
2022-12-28T07:05:35.867Z,29.60
2022-12-28T07:08:12.485Z,14.70
2022-12-28T07:10:45.442Z,13.60
2022-12-28T07:13:18.559Z,15.10
2022-12-28T07:15:53.176Z,14.60
2022-12-28T07:18:25.561Z,20.40
2022-12-28T07:21:03.610Z,20.90
2022-12-28T07:23:36.057Z,16.00
2022-12-28T07:26:11.142Z,22.40
2022-12-28T07:28:45.637Z,21.20
2022-12-28T07:31:20.301Z,19.60
2022-12-28T07:33:55.673Z,17.00
2022-12-28T07:36:30.238Z,21.20
2022-12-28T07:39:03.247Z,15.70
2022-12-28T07:41:37.286Z,17.40
2022-12-28T07:44:11.079Z,18.80
2022-12-28T07:46:43.438Z,15.60
2022-12-28T07:49:15.790Z,16.40
2022-12-28T07:51:49.161Z,17.70
2022-12-28T07:54:21.606Z,14.90
2022-12-28T07:56:54.084Z,20.70
2022-12-28T07:59:30.939Z,18.20
2022-12-28T08:02:03.832Z,22.20
2022-12-28T08:04:36.258Z,19.30
2022-12-28T08:07:08.619Z,18.70
2022-12-28T08:09:40.914Z,17.10
2022-12-28T08:12:13.235Z,14.20
2022-12-28T08:14:45.629Z,15.10
2022-12-28T08:17:21.245Z,11.80
2022-12-28T08:19:55.597Z,28.80
2022-12-28T08:22:28.205Z,21.10
2022-12-28T08:25:00.555Z,18.60
2022-12-28T08:27:38.326Z,20.60
2022-12-28T08:30:14.937Z,19.20
2022-12-28T08:32:47.289Z,15.30
2022-12-28T08:35:19.774Z,15.80
2022-12-28T08:37:52.172Z,13.60
2022-12-28T08:40:29.933Z,12.60
2022-12-28T08:43:02.775Z,13.60
2022-12-28T08:45:35.128Z,15.30
2022-12-28T08:48:08.320Z,15.50
2022-12-28T08:50:40.645Z,18.40
2022-12-28T08:53:13.248Z,13.30
2022-12-28T08:55:45.670Z,12.60
2022-12-28T08:58:18.017Z,16.10
2022-12-28T09:00:50.336Z,15.60
2022-12-28T09:03:22.746Z,20.90
2022-12-28T09:05:55.162Z,18.20
2022-12-28T09:08:27.561Z,21.10
2022-12-28T09:11:03.900Z,23.70
2022-12-28T09:13:37.250Z,25.80
2022-12-28T09:16:12.078Z,22.10
2022-12-28T09:18:45.983Z,19.20
2022-12-28T09:21:21.099Z,28.80
2022-12-28T09:23:53.549Z,28.90
2022-12-28T09:26:28.283Z,19.40
2022-12-28T09:29:02.443Z,16.20
2022-12-28T09:31:37.416Z,24.80
2022-12-28T09:37:02.011Z,26.50
2022-12-28T09:39:34.458Z,15.10
2022-12-28T09:42:13.160Z,14.10
2022-12-28T09:44:56.106Z,14.40
2022-12-28T09:47:34.986Z,19.10
2022-12-28T09:50:30.381Z,12.80
2022-12-28T09:53:36.587Z,18.70
2022-12-28T09:56:24.371Z,17.10
2022-12-28T09:58:58.175Z,14.90
2022-12-28T10:01:30.790Z,13.70
2022-12-28T10:04:04.228Z,14.60
2022-12-28T10:06:38.248Z,16.50
2022-12-28T10:09:23.518Z,26.00
2022-12-28T10:11:56.579Z,14.20
2022-12-28T10:14:33.534Z,32.10
2022-12-28T10:17:07.839Z,44.50
2022-12-28T10:19:40.394Z,22.40
2022-12-28T10:22:17.311Z,22.20
2022-12-28T10:24:50.094Z,16.10
2022-12-28T10:27:25.027Z,19.00
2022-12-28T10:30:00.497Z,20.00
2022-12-28T10:32:51.841Z,20.20
2022-12-28T10:35:29.869Z,40.00
2022-12-28T10:38:07.613Z,15.50
2022-12-28T10:40:41.209Z,15.80
2022-12-28T10:43:21.300Z,21.60
2022-12-28T10:45:54.240Z,21.60
2022-12-28T10:48:30.583Z,16.40
2022-12-28T10:51:12.935Z,18.30
2022-12-28T10:53:48.249Z,12.30
2022-12-28T10:56:28.602Z,17.90
2022-12-28T10:59:24.565Z,17.10
2022-12-28T11:02:14.911Z,15.70
2022-12-28T11:05:00.669Z,15.50
2022-12-28T11:07:36.369Z,13.40
2022-12-28T11:10:28.994Z,20.70
2022-12-28T11:13:02.748Z,21.30
2022-12-28T11:15:35.994Z,19.10
2022-12-28T11:18:17.769Z,16.60
2022-12-28T11:20:52.564Z,15.50
2022-12-28T11:23:31.610Z,12.70
2022-12-28T11:26:04.380Z,15.50
2022-12-28T11:28:36.724Z,12.80
2022-12-28T11:31:15.738Z,13.80
2022-12-28T11:33:50.023Z,13.20
2022-12-28T11:36:25.336Z,15.70
2022-12-28T11:38:58.733Z,30.80
2022-12-28T11:42:19.383Z,19.80
2022-12-28T11:44:56.931Z,17.00
2022-12-28T11:47:34.244Z,11.20
2022-12-28T11:50:50.887Z,12.80
2022-12-28T11:53:45.527Z,16.10
2022-12-28T11:56:19.437Z,17.60
2022-12-28T11:59:05.085Z,18.00
2022-12-28T12:04:33.356Z,11.90
2022-12-28T12:07:45.896Z,14.30
2022-12-28T12:10:30.941Z,14.20
2022-12-28T12:13:20.538Z,11.80
2022-12-28T12:15:56.185Z,12.30
2022-12-28T12:18:31.198Z,20.20
2022-12-28T12:21:13.292Z,20.40
2022-12-28T12:23:53.193Z,21.90
2022-12-28T12:26:34.831Z,15.50
2022-12-28T12:29:16.213Z,17.10
2022-12-28T12:31:52.507Z,15.20
2022-12-28T12:34:29.750Z,20.90
2022-12-28T12:37:29.045Z,14.40
2022-12-28T12:40:25.614Z,13.80
2022-12-28T12:43:15.573Z,14.20
2022-12-28T12:45:57.454Z,16.20
2022-12-28T12:48:55.647Z,16.10
2022-12-28T12:51:33.529Z,12.30
2022-12-28T12:54:23.337Z,15.60
2022-12-28T12:56:59.801Z,15.60
2022-12-28T12:59:50.459Z,16.70
2022-12-28T13:02:58.280Z,19.20
2022-12-28T13:05:32.918Z,19.20
2022-12-28T13:08:06.743Z,16.30
2022-12-28T13:10:44.696Z,12.40
2022-12-28T13:13:25.592Z,12.90
2022-12-28T13:16:03.456Z,16.80
2022-12-28T13:18:45.019Z,15.00
2022-12-28T13:21:22.346Z,24.80
2022-12-28T13:23:55.496Z,15.60
2022-12-28T13:26:30.536Z,21.40
2022-12-28T13:29:04.847Z,17.70
2022-12-28T13:31:39.877Z,25.20
2022-12-28T13:34:20.776Z,16.10
2022-12-28T13:36:56.717Z,20.10
2022-12-28T13:39:33.053Z,17.40
2022-12-28T13:42:15.363Z,23.10
2022-12-28T13:44:50.981Z,22.20
2022-12-28T13:47:27.640Z,18.90
2022-12-28T13:50:04.711Z,17.10
2022-12-28T13:52:42.946Z,23.00
2022-12-28T13:55:18.752Z,16.20
2022-12-28T13:57:59.724Z,24.20
2022-12-28T14:00:35.223Z,30.10
2022-12-28T14:05:43.543Z,25.90
2022-12-28T14:08:17.025Z,34.70
2022-12-28T14:10:51.537Z,23.00
2022-12-28T14:13:25.190Z,25.50
2022-12-28T14:15:57.798Z,35.90
2022-12-28T14:18:31.563Z,40.60
2022-12-28T14:21:06.407Z,43.00
2022-12-28T14:23:40.560Z,56.10
2022-12-28T14:26:22.337Z,54.90
2022-12-28T14:28:56.361Z,30.80
2022-12-28T14:31:30.942Z,17.70
2022-12-28T14:34:05.895Z,17.70
2022-12-28T14:36:43.414Z,17.80
2022-12-28T14:39:27.621Z,17.60
2022-12-28T14:42:00.729Z,14.60
2022-12-28T14:44:34.766Z,12.60
2022-12-28T14:47:37.066Z,19.90
2022-12-28T14:50:22.418Z,16.20
2022-12-28T14:53:08.835Z,38.30
2022-12-28T14:55:55.196Z,26.60
2022-12-28T14:58:31.654Z,20.30
2022-12-28T15:01:07.329Z,20.20
2022-12-28T15:03:54.179Z,22.40
2022-12-28T15:06:30.498Z,27.30
2022-12-28T15:09:06.519Z,19.10
2022-12-28T15:11:39.062Z,26.10
2022-12-28T15:14:11.509Z,23.20
2022-12-28T15:16:43.963Z,23.40
2022-12-28T15:19:16.402Z,21.00
2022-12-28T15:21:48.982Z,20.90
2022-12-28T15:24:23.703Z,19.90
2022-12-28T15:26:57.596Z,20.10
2022-12-28T15:32:22.485Z,23.10
2022-12-28T15:34:54.867Z,20.70
2022-12-28T15:37:27.203Z,19.10
2022-12-28T15:39:59.707Z,20.30
2022-12-28T15:42:38.134Z,84.00
2022-12-28T15:45:13.478Z,31.70
2022-12-28T15:47:45.890Z,54.40
2022-12-28T15:50:18.561Z,29.90
2022-12-28T15:52:50.993Z,36.30
2022-12-28T15:55:23.343Z,147.50
2022-12-28T15:57:55.698Z,42.20
2022-12-28T16:00:28.087Z,201.70
2022-12-28T16:03:00.541Z,133.20
2022-12-28T16:05:33.684Z,24.10
2022-12-28T16:08:06.360Z,15.40
2022-12-28T16:10:38.681Z,19.40
2022-12-28T16:13:11.091Z,16.40
2022-12-28T16:15:43.457Z,35.00
2022-12-28T16:18:15.851Z,22.30
2022-12-28T16:20:49.068Z,25.50
2022-12-28T16:23:21.442Z,31.80
2022-12-28T16:25:54.044Z,36.40
2022-12-28T16:28:26.449Z,58.50
2022-12-28T16:30:59.639Z,37.30
2022-12-28T16:33:32.318Z,30.40
2022-12-28T16:36:12.047Z,31.70
2022-12-28T16:38:44.487Z,33.50
2022-12-28T16:41:18.146Z,22.80
2022-12-28T16:43:51.428Z,35.40
2022-12-28T16:46:23.867Z,44.20
2022-12-28T16:48:56.323Z,36.70
2022-12-28T16:51:28.841Z,38.40
2022-12-28T16:54:01.232Z,36.10
2022-12-28T16:56:33.633Z,35.60
2022-12-28T16:59:05.952Z,32.30
2022-12-28T17:01:38.551Z,30.20
2022-12-28T17:04:11.265Z,46.20
2022-12-28T17:06:46.591Z,98.20
2022-12-28T17:09:19.712Z,82.50
2022-12-28T17:11:52.705Z,59.40
2022-12-28T17:14:37.077Z,35.50
2022-12-28T17:17:10.242Z,93.70
2022-12-28T17:19:42.494Z,58.90
2022-12-28T17:22:14.976Z,65.40
2022-12-28T17:24:47.378Z,74.20
2022-12-28T17:27:20.051Z,92.20
2022-12-28T17:29:52.459Z,64.50
2022-12-28T17:32:24.856Z,65.80
2022-12-28T17:34:57.327Z,51.30
2022-12-28T17:37:29.821Z,35.90
2022-12-28T17:40:02.206Z,42.60
2022-12-28T17:42:34.573Z,28.60
2022-12-28T17:45:11.743Z,25.80
2022-12-28T17:47:44.617Z,22.90
2022-12-28T17:50:18.234Z,21.10
2022-12-28T17:52:50.525Z,20.70
2022-12-28T17:55:22.843Z,23.70
2022-12-28T17:57:55.469Z,29.20
2022-12-28T18:00:27.863Z,15.80
2022-12-28T18:03:00.790Z,20.40
2022-12-28T18:05:35.300Z,19.20
2022-12-28T18:08:08.057Z,17.20
2022-12-28T18:10:40.509Z,17.80
2022-12-28T18:13:13.371Z,23.00
2022-12-28T18:15:47.177Z,19.20
2022-12-28T18:18:20.419Z,19.20
2022-12-28T18:21:00.786Z,30.30
2022-12-28T18:23:34.431Z,48.30
2022-12-28T18:26:08.800Z,25.00
2022-12-28T18:28:41.311Z,25.80
2022-12-28T18:31:13.947Z,36.70
2022-12-28T18:54:30.938Z,24.50
2022-12-28T18:57:03.310Z,23.60
2022-12-28T18:59:35.767Z,15.40
2022-12-28T19:02:15.938Z,15.40
2022-12-28T19:04:52.990Z,17.40
2022-12-28T19:07:25.683Z,20.70
2022-12-28T19:10:14.061Z,21.90
2022-12-28T19:12:47.041Z,21.60
2022-12-28T19:15:19.826Z,25.10
2022-12-28T19:17:52.198Z,43.80
2022-12-28T19:20:24.828Z,29.00
2022-12-28T19:22:57.225Z,16.90
2022-12-28T19:25:29.625Z,16.40
2022-12-28T19:28:02.051Z,21.10
2022-12-28T19:30:34.446Z,15.80
2022-12-28T19:33:06.952Z,20.40
2022-12-28T19:35:39.320Z,18.70
2022-12-28T19:38:11.618Z,18.10
2022-12-28T19:40:43.941Z,17.90
2022-12-28T19:43:16.212Z,14.80
2022-12-28T19:45:48.671Z,16.60
2022-12-28T19:48:21.034Z,24.60
2022-12-28T19:50:53.332Z,27.50
2022-12-28T19:53:25.681Z,23.60
2022-12-28T19:56:04.612Z,46.00
2022-12-28T19:58:39.183Z,21.20
2022-12-28T20:01:13.502Z,14.10
2022-12-28T20:03:46.858Z,15.00
2022-12-28T20:06:22.346Z,28.60
2022-12-28T20:08:56.529Z,27.90
2022-12-28T20:11:29.706Z,15.90
2022-12-28T20:14:03.660Z,17.40
2022-12-28T20:16:37.414Z,18.20
2022-12-28T20:19:11.043Z,20.70
2022-12-28T20:21:43.565Z,15.90
2022-12-28T20:24:17.586Z,16.40
2022-12-28T20:26:50.096Z,15.50
2022-12-28T20:29:22.372Z,13.30
2022-12-28T20:31:55.166Z,14.00
2022-12-28T20:34:27.702Z,17.70
2022-12-28T20:37:00.186Z,19.80
2022-12-28T20:39:32.583Z,18.10
2022-12-28T20:42:22.881Z,13.90
2022-12-28T20:44:57.658Z,15.50
2022-12-28T20:47:30.079Z,12.90
2022-12-28T20:50:04.045Z,10.70
2022-12-28T20:52:36.362Z,15.00
2022-12-28T20:55:09.651Z,15.70
2022-12-28T20:57:41.981Z,27.90
2022-12-28T21:00:16.343Z,25.20
2022-12-28T21:02:49.309Z,13.50
2022-12-28T21:05:21.757Z,13.80
2022-12-28T21:07:54.229Z,13.70
2022-12-28T21:10:26.770Z,22.30
2022-12-28T21:12:59.425Z,22.50
2022-12-28T21:15:31.876Z,27.00
2022-12-28T21:18:04.535Z,18.30
2022-12-28T21:20:39.192Z,15.30
2022-12-28T21:23:11.855Z,20.40
2022-12-28T21:25:44.248Z,23.00
2022-12-28T21:28:16.763Z,15.90
2022-12-28T21:30:55.938Z,16.60
2022-12-28T21:33:28.386Z,23.10
2022-12-28T21:36:02.811Z,24.00
2022-12-28T21:38:37.896Z,18.70
2022-12-28T21:43:42.745Z,11.80
2022-12-28T21:46:16.084Z,14.60
2022-12-28T21:48:48.565Z,11.50
2022-12-28T21:51:35.331Z,14.60
2022-12-28T21:54:11.384Z,16.40
2022-12-28T21:56:45.469Z,15.50
2022-12-28T21:59:17.846Z,16.50
2022-12-28T22:02:07.903Z,13.10
2022-12-28T22:05:02.437Z,19.50
2022-12-28T22:07:37.305Z,19.10
2022-12-28T22:10:28.119Z,16.90
2022-12-28T22:13:00.537Z,12.90
2022-12-28T22:15:50.863Z,11.70
2022-12-28T22:18:52.656Z,14.80
2022-12-28T22:21:17.437Z,15.60
2022-12-28T22:23:49.862Z,15.80
2022-12-28T22:26:22.340Z,12.20
2022-12-28T22:28:54.613Z,18.50
2022-12-28T22:31:26.940Z,14.30
2022-12-28T22:34:03.371Z,17.00
2022-12-28T22:36:39.075Z,12.20
2022-12-28T22:39:11.342Z,11.60
2022-12-28T22:41:43.690Z,13.70
2022-12-28T22:44:16.031Z,18.40
2022-12-28T22:46:48.463Z,15.30
2022-12-28T22:49:21.085Z,12.40
2022-12-28T22:51:53.444Z,14.40
2022-12-28T22:54:26.028Z,14.10
2022-12-28T22:56:58.327Z,11.10
2022-12-28T22:59:30.787Z,18.80
2022-12-28T23:02:03.254Z,12.90
2022-12-28T23:04:35.923Z,15.30
2022-12-28T23:07:08.367Z,11.70
2022-12-28T23:09:40.740Z,12.50
2022-12-28T23:12:13.067Z,10.40
2022-12-28T23:15:03.079Z,10.30
2022-12-28T23:17:35.453Z,9.30
2022-12-28T23:20:26.611Z,10.90
2022-12-28T23:23:17.008Z,10.00
2022-12-28T23:26:07.456Z,13.70
2022-12-28T23:28:39.756Z,10.40
2022-12-28T23:31:11.990Z,9.00
2022-12-28T23:33:44.342Z,9.30
2022-12-28T23:36:16.672Z,11.00
2022-12-28T23:38:50.686Z,9.60
2022-12-28T23:41:40.637Z,9.90
2022-12-28T23:44:12.933Z,10.40
2022-12-28T23:46:45.646Z,9.60
2022-12-28T23:49:18.933Z,10.20
2022-12-28T23:51:51.558Z,10.30
2022-12-28T23:54:24.012Z,10.10
2022-12-28T23:56:56.358Z,9.40
2022-12-28T23:59:28.712Z,9.00
